createdAt,value
2019-04-21T00:02:30.720Z,12.80
2019-04-21T00:05:18.430Z,12.80
2019-04-21T00:07:49.252Z,12.70
2019-04-21T00:10:18.848Z,12.60
2019-04-21T00:12:47.458Z,12.60
2019-04-21T00:15:09.737Z,12.60
2019-04-21T00:17:31.732Z,12.50
2019-04-21T00:20:15.563Z,12.50
2019-04-21T00:22:46.610Z,12.40
2019-04-21T00:25:18.167Z,12.40
2019-04-21T00:27:51.973Z,12.40
2019-04-21T00:30:30.024Z,12.30
2019-04-21T00:32:51.563Z,12.20
2019-04-21T00:35:13.299Z,12.20
2019-04-21T00:38:00.572Z,12.10
2019-04-21T00:40:36.513Z,12.10
2019-04-21T00:42:59.978Z,12.00
2019-04-21T00:45:29.069Z,12.00
2019-04-21T00:48:05.917Z,11.90
2019-04-21T00:50:51.745Z,11.80
2019-04-21T00:53:19.600Z,11.80
2019-04-21T00:55:51.699Z,11.70
2019-04-21T00:58:24.142Z,11.60
2019-04-21T01:00:51.111Z,11.50
2019-04-21T01:03:20.159Z,11.50
2019-04-21T01:05:57.630Z,11.50
2019-04-21T01:08:21.730Z,11.40
2019-04-21T01:10:49.241Z,11.40
2019-04-21T01:13:27.359Z,11.40
2019-04-21T01:16:14.510Z,11.40
2019-04-21T01:18:27.160Z,11.30
2019-04-21T01:20:35.777Z,11.30
2019-04-21T01:23:06.326Z,11.20
2019-04-21T01:25:42.500Z,11.30
2019-04-21T01:28:27.152Z,11.20
2019-04-21T01:30:56.905Z,11.10
2019-04-21T01:33:36.236Z,11.10
2019-04-21T01:35:58.289Z,11.20
2019-04-21T01:38:38.119Z,11.20
2019-04-21T01:41:08.636Z,11.20
2019-04-21T01:43:29.895Z,11.20
2019-04-21T01:45:58.973Z,11.20
2019-04-21T01:48:32.017Z,11.20
2019-04-21T01:51:03.921Z,11.20
2019-04-21T01:54:03.863Z,11.20
2019-04-21T01:56:48.865Z,11.20
2019-04-21T01:59:03.511Z,11.10
2019-04-21T02:01:48.024Z,11.00
2019-04-21T02:04:24.500Z,11.00
2019-04-21T02:06:50.476Z,10.90
2019-04-21T02:09:14.893Z,10.90
2019-04-21T02:11:50.866Z,10.70
2019-04-21T02:14:29.891Z,10.70
2019-04-21T02:16:52.064Z,10.70
2019-04-21T02:19:18.287Z,10.70
2019-04-21T02:21:47.816Z,10.70
2019-04-21T02:24:31.357Z,10.70
2019-04-21T02:26:56.129Z,10.70
2019-04-21T02:29:29.156Z,10.70
2019-04-21T02:34:44.829Z,10.60
2019-04-21T02:39:37.378Z,10.50
2019-04-21T02:44:43.303Z,10.60
2019-04-21T02:47:12.176Z,10.60
2019-04-21T02:52:25.857Z,10.50
2019-04-21T03:00:00.440Z,10.30
2019-04-21T03:02:42.815Z,10.30
2019-04-21T03:05:41.976Z,10.30
2019-04-21T03:07:54.958Z,10.30
2019-04-21T03:10:26.722Z,10.30
2019-04-21T03:12:45.916Z,10.20
2019-04-21T03:15:38.999Z,10.20
2019-04-21T03:17:57.502Z,10.20
2019-04-21T03:20:23.917Z,10.30
2019-04-21T03:23:00.082Z,10.30
2019-04-21T03:31:02.147Z,10.20
2019-04-21T03:36:02.254Z,10.10
2019-04-21T03:40:27.223Z,10.20
2019-04-21T03:43:10.150Z,10.20
2019-04-21T03:45:42.266Z,10.20
2019-04-21T03:48:01.216Z,10.10
2019-04-21T03:50:37.273Z,10.00
2019-04-21T03:55:53.093Z,10.10
2019-04-21T03:58:17.820Z,10.10
2019-04-21T04:01:09.795Z,10.00
2019-04-21T04:12:12.494Z,9.80
2019-04-21T04:23:31.520Z,9.60
2019-04-21T04:28:28.205Z,9.60
2019-04-21T04:30:52.091Z,9.60
2019-04-21T04:33:43.834Z,9.70
2019-04-21T04:38:40.463Z,9.60
2019-04-21T04:43:54.576Z,9.50
2019-04-21T04:46:18.273Z,9.50
2019-04-21T04:48:55.329Z,9.50
2019-04-21T04:51:25.554Z,9.50
2019-04-21T04:53:46.894Z,9.50
2019-04-21T04:56:26.024Z,9.50
2019-04-21T04:59:18.641Z,9.50
2019-04-21T05:01:32.646Z,9.50
2019-04-21T05:04:02.540Z,9.60
2019-04-21T05:09:15.280Z,10.10
2019-04-21T05:11:46.673Z,10.60
2019-04-21T05:14:11.625Z,11.10
2019-04-21T05:16:43.140Z,11.60
2019-04-21T05:19:13.213Z,12.10
2019-04-21T05:21:37.131Z,12.50
2019-04-21T05:23:55.609Z,12.60
2019-04-21T05:26:21.463Z,12.80
2019-04-21T05:28:53.999Z,12.80
2019-04-21T05:31:51.088Z,12.80
2019-04-21T05:34:16.870Z,12.70
2019-04-21T05:37:23.287Z,12.40
2019-04-21T05:40:03.089Z,12.20
2019-04-21T05:42:36.797Z,11.90
2019-04-21T05:45:21.133Z,11.80
2019-04-21T05:50:36.477Z,11.60
2019-04-21T05:53:17.741Z,11.60
2019-04-21T05:55:43.512Z,11.60
2019-04-21T05:58:08.637Z,11.70
2019-04-21T06:01:09.350Z,11.70
2019-04-21T06:03:17.627Z,11.80
2019-04-21T06:06:02.832Z,12.00
2019-04-21T06:08:17.924Z,12.10
2019-04-21T06:10:52.350Z,12.30
2019-04-21T06:13:28.177Z,12.40
2019-04-21T06:18:27.374Z,12.70
2019-04-21T06:20:54.281Z,12.80
2019-04-21T06:23:28.697Z,12.90
2019-04-21T06:26:11.805Z,13.10
2019-04-21T06:28:30.649Z,13.10
2019-04-21T06:31:05.954Z,13.30
2019-04-21T06:33:45.916Z,13.40
2019-04-21T06:44:13.244Z,14.20
2019-04-21T06:46:30.669Z,14.40
2019-04-21T06:49:01.289Z,14.70
2019-04-21T06:56:38.100Z,15.50
2019-04-21T06:59:01.533Z,15.90
2019-04-21T07:01:36.874Z,16.20
2019-04-21T07:04:11.505Z,16.30
2019-04-21T07:06:38.646Z,16.60
2019-04-21T07:11:30.262Z,16.80
2019-04-21T07:14:19.373Z,16.90
2019-04-21T07:16:38.613Z,16.90
2019-04-21T07:19:13.126Z,17.20
2019-04-21T07:21:38.487Z,17.30
2019-04-21T07:24:13.884Z,17.60
2019-04-21T07:26:39.234Z,17.80
2019-04-21T07:29:17.124Z,17.90
2019-04-21T07:31:47.006Z,18.00
2019-04-21T07:34:14.034Z,18.10
2019-04-21T07:36:50.927Z,18.40
2019-04-21T07:39:12.871Z,18.50
2019-04-21T07:41:42.509Z,18.70
2019-04-21T07:44:06.196Z,18.90
2019-04-21T07:46:37.192Z,19.00
2019-04-21T07:49:40.136Z,18.90
2019-04-21T07:52:46.931Z,19.20
2019-04-21T07:55:18.636Z,19.40
2019-04-21T07:57:39.709Z,19.50
2019-04-21T08:00:20.973Z,19.70
2019-04-21T08:03:05.531Z,19.80
2019-04-21T08:10:15.699Z,19.90
2019-04-21T08:12:42.983Z,19.80
2019-04-21T08:15:24.977Z,19.90
2019-04-21T08:17:49.132Z,19.80
2019-04-21T08:20:18.704Z,19.90
2019-04-21T08:22:51.000Z,20.20
2019-04-21T08:25:19.500Z,19.80
2019-04-21T08:30:27.509Z,20.40
2019-04-21T08:33:02.396Z,20.90
2019-04-21T08:37:55.662Z,21.20
2019-04-21T08:40:31.653Z,21.20
2019-04-21T08:42:56.748Z,21.10
2019-04-21T08:45:31.730Z,21.30
2019-04-21T08:48:00.958Z,21.70
2019-04-21T08:50:47.621Z,21.80
2019-04-21T08:53:03.936Z,21.30
2019-04-21T08:56:12.422Z,21.50
2019-04-21T08:58:47.911Z,21.90
2019-04-21T09:01:19.153Z,22.30
2019-04-21T09:03:58.772Z,22.40
2019-04-21T09:06:42.060Z,22.70
2019-04-21T09:09:06.599Z,22.70
2019-04-21T09:11:32.039Z,22.90
2019-04-21T09:14:01.545Z,23.10
2019-04-21T09:16:31.256Z,23.10
2019-04-21T09:18:59.511Z,22.80
2019-04-21T09:21:37.426Z,23.10
2019-04-21T09:24:14.771Z,23.50
2019-04-21T09:26:35.635Z,23.70
2019-04-21T09:29:00.381Z,24.00
2019-04-21T09:31:29.151Z,24.10
2019-04-21T09:33:59.249Z,24.20
2019-04-21T09:36:36.197Z,24.30
2019-04-21T09:39:05.456Z,24.40
2019-04-21T09:41:29.318Z,24.10
2019-04-21T09:43:59.724Z,23.50
2019-04-21T09:46:29.943Z,23.90
2019-04-21T09:49:02.670Z,24.30
2019-04-21T09:51:30.560Z,23.90
2019-04-21T09:54:05.703Z,24.30
2019-04-21T09:56:40.688Z,24.60
2019-04-21T09:59:09.156Z,24.90
2019-04-21T10:01:45.200Z,24.60
2019-04-21T10:04:05.491Z,24.90
2019-04-21T10:06:34.952Z,24.60
2019-04-21T10:09:07.935Z,25.00
2019-04-21T10:11:37.616Z,25.30
2019-04-21T10:14:07.437Z,25.00
2019-04-21T10:16:45.171Z,25.30
2019-04-21T10:19:15.283Z,25.20
2019-04-21T10:21:44.872Z,25.20
2019-04-21T10:24:14.389Z,25.60
2019-04-21T10:26:43.429Z,25.40
2019-04-21T10:29:19.361Z,25.70
2019-04-21T10:31:44.990Z,25.70
2019-04-21T10:34:14.102Z,25.60
2019-04-21T10:36:43.165Z,25.50
2019-04-21T10:39:13.574Z,25.60
2019-04-21T10:41:43.524Z,26.00
2019-04-21T10:44:13.520Z,26.30
2019-04-21T10:46:45.304Z,26.40
2019-04-21T10:49:14.782Z,26.20
2019-04-21T10:51:44.053Z,26.30
2019-04-21T10:54:13.697Z,26.10
2019-04-21T10:56:44.417Z,26.10
2019-04-21T10:59:14.266Z,26.00
2019-04-21T11:01:43.625Z,25.60
2019-04-21T11:04:23.729Z,25.70
2019-04-21T11:06:48.663Z,25.80
2019-04-21T11:09:17.929Z,25.90
2019-04-21T11:11:49.854Z,25.80
2019-04-21T11:14:18.338Z,26.10
2019-04-21T11:16:49.266Z,26.10
2019-04-21T11:19:18.429Z,26.50
2019-04-21T11:21:47.506Z,26.50
2019-04-21T11:24:18.033Z,26.90
2019-04-21T11:26:47.785Z,26.90
2019-04-21T11:29:17.139Z,26.90
2019-04-21T11:31:47.332Z,27.00
2019-04-21T11:34:16.555Z,26.70
2019-04-21T11:36:45.966Z,27.10
2019-04-21T11:39:34.236Z,27.40
2019-04-21T11:41:55.339Z,26.90
2019-04-21T11:44:24.935Z,26.50
2019-04-21T11:46:54.407Z,26.50
2019-04-21T11:49:24.238Z,26.30
2019-04-21T11:51:55.128Z,26.80
2019-04-21T11:54:26.629Z,26.90
2019-04-21T11:56:56.952Z,27.40
2019-04-21T11:59:26.271Z,27.70
2019-04-21T12:01:55.407Z,28.00
2019-04-21T12:04:25.438Z,27.90
2019-04-21T12:06:55.976Z,27.80
2019-04-21T12:09:25.480Z,28.00
2019-04-21T12:11:54.535Z,28.30
2019-04-21T12:14:23.832Z,27.60
2019-04-21T12:16:53.062Z,27.50
2019-04-21T12:19:22.915Z,27.80
2019-04-21T12:22:01.195Z,27.40
2019-04-21T12:24:24.973Z,26.70
2019-04-21T12:26:54.232Z,26.60
2019-04-21T12:29:23.292Z,26.70
2019-04-21T12:32:10.116Z,27.00
2019-04-21T12:34:39.697Z,27.10
2019-04-21T12:37:08.876Z,27.70
2019-04-21T12:39:38.722Z,27.70
2019-04-21T12:42:08.919Z,27.70
2019-04-21T12:44:39.161Z,27.80
2019-04-21T12:47:08.244Z,28.40
2019-04-21T12:49:38.382Z,28.50
2019-04-21T12:52:07.532Z,28.30
2019-04-21T12:54:37.691Z,28.50
2019-04-21T12:57:07.748Z,28.50
2019-04-21T12:59:37.832Z,28.00
2019-04-21T13:02:08.000Z,27.90
2019-04-21T13:09:16.423Z,27.90
2019-04-21T13:12:38.044Z,27.80
2019-04-21T13:16:07.432Z,27.90
2019-04-21T13:19:31.408Z,28.20
2019-04-21T13:26:10.027Z,27.80
2019-04-21T13:29:34.512Z,27.40
2019-04-21T13:32:58.934Z,27.20
2019-04-21T13:36:23.350Z,26.90
2019-04-21T13:40:09.692Z,27.20
2019-04-21T13:43:12.434Z,27.50
2019-04-21T13:46:36.523Z,27.80
2019-04-21T13:50:01.521Z,28.10
2019-04-21T13:53:25.058Z,28.40
2019-04-21T13:56:48.508Z,28.60
2019-04-21T14:00:13.055Z,27.80
2019-04-21T14:03:37.576Z,27.40
2019-04-21T14:07:02.424Z,27.40
2019-04-21T14:10:25.946Z,27.40
2019-04-21T14:13:50.394Z,27.40
2019-04-21T14:17:14.909Z,27.20
2019-04-21T14:20:39.463Z,27.60
2019-04-21T14:24:02.755Z,28.00
2019-04-21T14:27:26.067Z,28.10
2019-04-21T14:30:50.341Z,27.60
2019-04-21T14:34:14.335Z,27.20
2019-04-21T14:37:38.366Z,27.50
2019-04-21T14:41:02.154Z,27.70
2019-04-21T14:44:25.290Z,28.20
2019-04-21T14:47:48.319Z,28.20
2019-04-21T14:51:11.679Z,28.30
2019-04-21T14:54:36.396Z,27.80
2019-04-21T14:58:01.137Z,27.40
2019-04-21T15:01:24.498Z,27.40
2019-04-21T15:04:47.615Z,27.40
2019-04-21T15:08:11.096Z,27.20
2019-04-21T15:11:35.973Z,26.80
2019-04-21T15:15:00.175Z,27.20
2019-04-21T15:18:23.647Z,27.00
2019-04-21T15:21:47.990Z,27.10
2019-04-21T15:25:12.037Z,27.20
2019-04-21T15:28:37.235Z,27.20
2019-04-21T15:32:00.910Z,27.20
2019-04-21T15:35:24.927Z,27.20
2019-04-21T15:38:48.059Z,27.50
2019-04-21T15:42:12.512Z,27.30
2019-04-21T15:45:36.753Z,27.10
2019-04-21T15:49:00.583Z,26.80
2019-04-21T15:52:23.636Z,26.60
2019-04-21T15:55:46.769Z,26.50
2019-04-21T15:59:10.536Z,26.50
2019-04-21T16:02:34.721Z,26.50
2019-04-21T16:05:59.398Z,26.50
2019-04-21T16:09:25.973Z,26.50
2019-04-21T16:12:47.631Z,26.10
2019-04-21T16:16:10.859Z,26.10
2019-04-21T16:19:34.446Z,25.90
2019-04-21T16:22:57.421Z,25.80
2019-04-21T16:26:22.254Z,25.80
2019-04-21T16:29:45.888Z,25.60
2019-04-21T16:33:10.082Z,25.50
2019-04-21T16:36:33.838Z,25.70
2019-04-21T16:39:56.885Z,25.70
2019-04-21T16:43:20.040Z,25.60
2019-04-21T16:46:43.413Z,25.70
2019-04-21T16:50:07.769Z,25.60
2019-04-21T16:53:32.275Z,25.60
2019-04-21T16:56:55.374Z,25.50
2019-04-21T17:00:27.847Z,25.40
2019-04-21T17:03:37.650Z,25.30
2019-04-21T17:06:07.036Z,25.20
2019-04-21T17:08:36.832Z,25.00
2019-04-21T17:11:12.489Z,25.00
2019-04-21T17:13:38.268Z,24.90
2019-04-21T17:16:39.548Z,24.90
2019-04-21T17:18:51.398Z,24.90
2019-04-21T17:21:10.687Z,24.80
2019-04-21T17:23:41.269Z,24.70
2019-04-21T17:26:11.001Z,24.70
2019-04-21T17:28:40.688Z,24.60
2019-04-21T17:31:11.082Z,24.50
2019-04-21T17:33:41.352Z,24.50
2019-04-21T17:36:11.416Z,24.50
2019-04-21T17:38:41.753Z,24.50
2019-04-21T17:41:21.856Z,24.20
2019-04-21T17:43:41.910Z,24.10
2019-04-21T17:46:13.646Z,24.00
2019-04-21T17:48:42.936Z,24.00
2019-04-21T17:51:35.144Z,23.90
2019-04-21T17:54:25.764Z,23.90
2019-04-21T17:57:11.229Z,23.80
2019-04-21T17:59:52.293Z,23.60
2019-04-21T18:02:12.908Z,23.60
2019-04-21T18:04:44.545Z,23.50
2019-04-21T18:07:27.245Z,23.50
2019-04-21T18:10:14.390Z,23.40
2019-04-21T18:12:34.830Z,23.30
2019-04-21T18:14:57.925Z,23.30
2019-04-21T18:17:18.686Z,23.30
2019-04-21T18:19:51.288Z,23.20
2019-04-21T18:22:54.689Z,23.10
2019-04-21T18:25:38.485Z,23.10
2019-04-21T18:27:56.548Z,22.90
2019-04-21T18:30:49.059Z,22.90
2019-04-21T18:33:26.648Z,22.80
2019-04-21T18:36:22.288Z,22.80
2019-04-21T18:39:10.312Z,22.70
2019-04-21T18:41:28.728Z,22.50
2019-04-21T18:44:28.054Z,22.50
2019-04-21T18:47:05.178Z,22.40
2019-04-21T18:49:21.565Z,22.40
2019-04-21T18:52:01.244Z,22.30
2019-04-21T18:54:41.234Z,22.20
2019-04-21T18:57:07.655Z,22.10
2019-04-21T18:59:34.665Z,22.00
2019-04-21T19:02:05.900Z,21.80
2019-04-21T19:04:33.887Z,21.80
2019-04-21T19:07:16.877Z,21.70
2019-04-21T19:10:14.873Z,21.70
2019-04-21T19:12:25.399Z,21.60
2019-04-21T19:14:52.131Z,21.50
2019-04-21T19:17:42.647Z,21.40
2019-04-21T19:19:55.878Z,21.40
2019-04-21T19:22:19.853Z,21.30
2019-04-21T19:24:57.249Z,21.20
2019-04-21T19:27:36.428Z,21.20
2019-04-21T19:30:05.144Z,21.10
2019-04-21T19:32:25.623Z,21.00
2019-04-21T19:34:43.111Z,21.00
2019-04-21T19:37:15.470Z,20.90
2019-04-21T19:39:56.574Z,20.90
2019-04-21T19:42:22.637Z,20.80
2019-04-21T19:44:59.236Z,20.70
2019-04-21T19:47:34.924Z,20.70
2019-04-21T19:50:06.033Z,20.70
2019-04-21T19:52:30.895Z,20.60
2019-04-21T19:54:49.115Z,20.50
2019-04-21T19:57:17.217Z,20.40
2019-04-21T19:59:51.170Z,20.40
2019-04-21T20:02:18.544Z,20.30
2019-04-21T20:04:55.611Z,20.20
2019-04-21T20:07:33.188Z,20.20
2019-04-21T20:10:15.529Z,20.20
2019-04-21T20:12:39.891Z,20.10
2019-04-21T20:15:19.005Z,20.00
2019-04-21T20:17:40.778Z,20.00
2019-04-21T20:19:54.106Z,20.00
2019-04-21T20:22:30.955Z,19.90
2019-04-21T20:25:02.652Z,19.90
2019-04-21T20:27:34.754Z,19.80
2019-04-21T20:30:17.521Z,19.70
2019-04-21T20:32:53.382Z,19.60
2019-04-21T20:35:18.281Z,19.60
2019-04-21T20:37:41.746Z,19.50
2019-04-21T20:40:04.439Z,19.60
2019-04-21T20:42:42.591Z,19.50
2019-04-21T20:45:28.925Z,19.50
2019-04-21T20:47:39.427Z,19.50
2019-04-21T20:50:16.439Z,19.40
2019-04-21T20:52:54.079Z,19.40
2019-04-21T20:55:16.738Z,19.20
2019-04-21T20:57:48.959Z,19.20
2019-04-21T21:00:24.655Z,19.10
2019-04-21T21:03:07.442Z,19.00
2019-04-21T21:05:23.078Z,18.90
2019-04-21T21:07:55.827Z,18.90
2019-04-21T21:10:26.110Z,18.80
2019-04-21T21:13:06.268Z,18.70
2019-04-21T21:15:29.173Z,18.60
2019-04-21T21:18:06.281Z,18.60
2019-04-21T21:20:30.762Z,18.50
2019-04-21T21:23:01.038Z,18.50
2019-04-21T21:25:39.881Z,18.40
2019-04-21T21:27:59.615Z,18.40
2019-04-21T21:30:33.849Z,18.30
2019-04-21T21:33:11.471Z,18.40
2019-04-21T21:35:31.066Z,18.30
2019-04-21T21:38:13.193Z,18.20
2019-04-21T21:40:38.297Z,18.20
2019-04-21T21:42:53.377Z,18.20
2019-04-21T21:45:26.929Z,18.10
2019-04-21T21:50:31.550Z,18.00
2019-04-21T21:53:04.210Z,18.00
2019-04-21T21:55:25.617Z,17.90
2019-04-21T21:58:01.147Z,17.80
2019-04-21T22:00:28.005Z,17.70
2019-04-21T22:03:03.765Z,17.70
2019-04-21T22:05:32.764Z,17.70
2019-04-21T22:08:00.457Z,17.60
2019-04-21T22:10:29.735Z,17.60
2019-04-21T22:13:06.807Z,17.50
2019-04-21T22:15:32.007Z,17.50
2019-04-21T22:18:19.340Z,17.40
2019-04-21T22:20:50.209Z,17.40
2019-04-21T22:23:09.854Z,17.40
2019-04-21T22:25:35.671Z,17.30
2019-04-21T22:28:04.081Z,17.30
2019-04-21T22:30:40.405Z,17.30
2019-04-21T22:33:08.550Z,17.20
2019-04-21T22:35:42.658Z,17.20
2019-04-21T22:38:19.069Z,17.20
2019-04-21T22:40:51.911Z,17.20
2019-04-21T22:43:19.805Z,17.10
2019-04-21T22:45:38.624Z,17.20
2019-04-21T22:48:14.045Z,17.10
2019-04-21T22:50:40.616Z,17.10
2019-04-21T22:53:10.639Z,17.10
2019-04-21T22:55:41.004Z,17.10
2019-04-21T22:58:11.452Z,16.90
2019-04-21T23:00:46.055Z,16.90
2019-04-21T23:03:17.393Z,16.90
2019-04-21T23:05:44.489Z,16.80
2019-04-21T23:08:15.072Z,16.70
2019-04-21T23:10:52.389Z,16.60
2019-04-21T23:13:19.905Z,16.60
2019-04-21T23:15:51.206Z,16.50
2019-04-21T23:18:30.596Z,16.50
2019-04-21T23:21:02.880Z,16.40
2019-04-21T23:23:39.787Z,16.30
2019-04-21T23:26:07.441Z,16.30
2019-04-21T23:28:42.211Z,16.30
2019-04-21T23:31:12.512Z,16.30
2019-04-21T23:33:23.377Z,16.40
2019-04-21T23:35:59.085Z,16.30
2019-04-21T23:38:31.444Z,16.20
2019-04-21T23:40:58.681Z,16.10
2019-04-21T23:43:29.159Z,16.00
2019-04-21T23:45:57.178Z,15.90
2019-04-21T23:48:38.976Z,16.00
2019-04-21T23:51:14.358Z,15.80
2019-04-21T23:53:29.258Z,15.80
2019-04-21T23:55:59.231Z,15.80
2019-04-21T23:58:32.617Z,15.80
